createdAt,value
2022-08-05T00:00:20.296Z,3.10
2022-08-05T00:02:51.471Z,2.30
2022-08-05T00:06:03.030Z,2.85
2022-08-05T00:08:32.753Z,3.67
2022-08-05T00:11:00.884Z,1.70
2022-08-05T00:13:39.237Z,0.82
2022-08-05T00:16:12.139Z,0.80
2022-08-05T00:18:45.422Z,3.92
2022-08-05T00:21:15.341Z,1.55
2022-08-05T00:23:46.802Z,2.88
2022-08-05T00:26:22.445Z,0.85
2022-08-05T00:28:50.668Z,1.27
2022-08-05T00:31:54.457Z,0.73
2022-08-05T00:34:56.127Z,3.05
2022-08-05T00:37:10.880Z,0.73
2022-08-05T00:39:57.454Z,0.95
2022-08-05T00:42:37.088Z,1.42
2022-08-05T00:45:08.768Z,0.80
2022-08-05T00:47:57.043Z,2.83
2022-08-05T00:50:26.596Z,0.95
2022-08-05T00:52:55.351Z,1.33
2022-08-05T00:55:42.446Z,1.60
2022-08-05T00:58:12.509Z,1.13
2022-08-05T01:00:42.065Z,2.00
2022-08-05T01:03:12.690Z,0.77
2022-08-05T01:05:54.781Z,2.13
2022-08-05T01:08:41.801Z,1.35
2022-08-05T01:11:13.616Z,1.40
2022-08-05T01:14:16.798Z,0.98
2022-08-05T01:17:05.343Z,0.90
2022-08-05T01:20:00.845Z,2.10
2022-08-05T01:22:47.037Z,2.67
2022-08-05T01:25:40.610Z,3.65
2022-08-05T01:28:26.898Z,1.73
2022-08-05T01:31:15.553Z,1.20
2022-08-05T01:33:55.335Z,0.85
2022-08-05T01:36:29.507Z,2.03
2022-08-05T01:39:00.407Z,1.58
2022-08-05T01:41:34.001Z,1.95
2022-08-05T01:44:02.880Z,4.75
2022-08-05T01:46:42.668Z,3.30
2022-08-05T01:49:23.917Z,2.15
2022-08-05T01:52:01.462Z,3.15
2022-08-05T01:54:57.849Z,4.80
2022-08-05T01:58:10.212Z,2.50
2022-08-05T02:00:29.998Z,2.45
2022-08-05T02:03:06.762Z,2.88
2022-08-05T02:05:53.765Z,1.45
2022-08-05T02:08:31.204Z,5.25
2022-08-05T02:11:12.561Z,5.03
2022-08-05T02:14:22.095Z,4.10
2022-08-05T02:16:54.601Z,1.08
2022-08-05T02:19:34.606Z,7.03
2022-08-05T02:22:17.443Z,1.95
2022-08-05T02:25:02.030Z,1.92
2022-08-05T02:27:58.950Z,2.88
2022-08-05T02:30:22.536Z,1.77
2022-08-05T02:32:54.132Z,1.58
2022-08-05T02:35:28.193Z,2.03
2022-08-05T02:38:02.561Z,2.60
2022-08-05T02:40:31.528Z,3.10
2022-08-05T02:43:00.849Z,6.15
2022-08-05T02:45:52.764Z,5.30
2022-08-05T02:48:19.288Z,6.78
2022-08-05T02:51:05.540Z,1.58
2022-08-05T02:53:39.123Z,3.83
2022-08-05T02:56:15.668Z,4.13
2022-08-05T02:58:51.653Z,4.47
2022-08-05T03:01:25.025Z,1.63
2022-08-05T03:04:09.885Z,3.90
2022-08-05T03:06:55.282Z,3.28
2022-08-05T03:09:37.741Z,3.53
2022-08-05T03:12:08.144Z,2.55
2022-08-05T03:14:45.647Z,2.28
2022-08-05T03:17:13.781Z,2.70
2022-08-05T03:19:42.097Z,2.70
2022-08-05T03:22:16.570Z,2.20
2022-08-05T03:24:50.957Z,7.97
2022-08-05T03:27:21.483Z,2.90
2022-08-05T03:30:07.269Z,1.52
2022-08-05T03:32:38.331Z,1.80
2022-08-05T03:35:06.496Z,3.67
2022-08-05T03:37:45.921Z,3.63
2022-08-05T03:40:15.453Z,4.88
2022-08-05T03:42:52.984Z,2.03
2022-08-05T03:45:23.083Z,3.67
2022-08-05T03:47:51.686Z,5.75
2022-08-05T03:50:25.835Z,3.55
2022-08-05T03:55:34.713Z,4.05
2022-08-05T03:56:30.708Z,2.50
2022-08-05T03:59:05.858Z,0.80
2022-08-05T04:01:37.893Z,4.53
2022-08-05T04:04:10.059Z,3.30
2022-08-05T04:06:47.774Z,5.13
2022-08-05T04:09:20.270Z,2.70
2022-08-05T04:11:54.344Z,1.73
2022-08-05T04:14:29.962Z,2.95
2022-08-05T04:17:00.226Z,6.35
2022-08-05T04:19:29.314Z,4.22
2022-08-05T04:22:08.528Z,3.40
2022-08-05T04:24:52.652Z,3.08
2022-08-05T04:27:33.033Z,2.25
2022-08-05T04:30:09.570Z,1.98
2022-08-05T04:32:37.653Z,2.50
2022-08-05T04:35:07.263Z,2.75
2022-08-05T04:38:01.090Z,3.53
2022-08-05T04:40:35.285Z,4.30
2022-08-05T04:43:03.553Z,5.55
2022-08-05T04:45:48.248Z,2.45
2022-08-05T04:48:27.025Z,4.50
2022-08-05T04:51:02.632Z,2.25
2022-08-05T04:56:14.402Z,4.40
2022-08-05T04:58:51.760Z,2.55
2022-08-05T05:01:33.855Z,2.95
2022-08-05T05:04:07.640Z,4.63
2022-08-05T05:06:39.670Z,5.35
2022-08-05T05:09:17.631Z,3.55
2022-08-05T05:11:53.151Z,3.88
2022-08-05T05:14:31.426Z,1.92
2022-08-05T05:17:00.620Z,3.47
2022-08-05T05:19:38.873Z,5.25
2022-08-05T05:22:22.654Z,2.55
2022-08-05T05:24:57.956Z,4.28
2022-08-05T05:27:44.712Z,3.88
2022-08-05T05:30:31.185Z,4.55
2022-08-05T05:33:08.835Z,3.22
2022-08-05T05:35:47.455Z,4.68
2022-08-05T05:38:22.469Z,6.22
2022-08-05T05:40:56.197Z,4.47
2022-08-05T05:43:54.225Z,2.22
2022-08-05T05:46:15.926Z,3.85
2022-08-05T05:48:48.301Z,3.22
2022-08-05T05:51:24.120Z,5.20
2022-08-05T05:53:58.042Z,4.05
2022-08-05T05:56:32.528Z,5.30
2022-08-05T05:59:07.391Z,4.25
2022-08-05T06:01:39.491Z,5.47
2022-08-05T06:04:12.661Z,3.72
2022-08-05T06:06:47.660Z,4.35
2022-08-05T06:12:01.768Z,6.78
2022-08-05T06:14:31.428Z,5.65
2022-08-05T06:17:02.260Z,3.67
2022-08-05T06:19:56.807Z,2.83
2022-08-05T06:22:29.807Z,4.57
2022-08-05T06:24:57.588Z,5.07
2022-08-05T06:28:11.466Z,5.95
2022-08-05T06:30:17.785Z,7.18
2022-08-05T06:32:50.648Z,4.30
2022-08-05T06:36:03.841Z,3.38
2022-08-05T06:38:11.430Z,8.20
2022-08-05T06:40:44.655Z,4.68
2022-08-05T06:43:58.967Z,7.78
2022-08-05T06:46:06.999Z,3.95
2022-08-05T06:48:55.464Z,7.60
2022-08-05T06:51:30.245Z,4.20
2022-08-05T06:54:00.075Z,4.55
2022-08-05T06:56:34.454Z,5.57
2022-08-05T06:59:09.619Z,9.43
2022-08-05T07:01:40.769Z,6.38
2022-08-05T07:04:10.803Z,4.78
2022-08-05T07:06:42.220Z,6.53
2022-08-05T07:09:09.740Z,7.80
2022-08-05T07:11:39.776Z,7.88
2022-08-05T07:14:30.031Z,4.43
2022-08-05T07:18:01.400Z,5.07
2022-08-05T07:22:42.345Z,4.93
2022-08-05T07:25:55.576Z,5.15
2022-08-05T07:28:03.781Z,8.05
2022-08-05T07:30:38.365Z,6.85
2022-08-05T07:33:10.351Z,6.68
2022-08-05T07:36:01.484Z,8.15
2022-08-05T07:38:34.902Z,6.03
2022-08-05T07:42:09.337Z,6.90
2022-08-05T07:44:14.179Z,7.25
2022-08-05T07:46:49.835Z,7.35
2022-08-05T07:49:19.051Z,6.43
2022-08-05T07:51:53.939Z,7.55
2022-08-05T07:54:31.329Z,7.15
2022-08-05T07:57:41.711Z,7.22
2022-08-05T07:59:51.083Z,9.25
2022-08-05T08:02:26.867Z,8.00
2022-08-05T08:04:59.389Z,6.40
2022-08-05T08:07:28.371Z,4.55
2022-08-05T08:09:56.794Z,17.00
2022-08-05T08:12:36.873Z,8.32
2022-08-05T08:15:14.042Z,6.78
2022-08-05T08:17:52.398Z,6.25
2022-08-05T08:21:00.206Z,8.70
2022-08-05T08:24:01.069Z,7.63
2022-08-05T08:26:04.476Z,8.73
2022-08-05T08:28:36.909Z,7.28
2022-08-05T08:31:15.126Z,9.57
2022-08-05T08:33:46.119Z,6.97
2022-08-05T08:36:29.434Z,5.80
2022-08-05T08:39:07.624Z,7.72
2022-08-05T08:41:52.377Z,9.10
2022-08-05T08:45:17.948Z,7.22
2022-08-05T08:48:06.147Z,7.90
2022-08-05T08:50:30.340Z,7.45
2022-08-05T08:53:11.892Z,9.00
2022-08-05T08:56:03.788Z,6.63
2022-08-05T08:58:43.058Z,6.13
2022-08-05T09:01:16.671Z,7.95
2022-08-05T09:03:54.306Z,5.60
2022-08-05T09:06:28.278Z,7.28
2022-08-05T09:09:01.909Z,5.10
2022-08-05T09:11:51.758Z,6.72
2022-08-05T09:14:56.488Z,5.38
2022-08-05T09:17:16.165Z,6.97
2022-08-05T09:20:02.953Z,4.10
2022-08-05T09:23:07.703Z,5.93
2022-08-05T09:26:02.926Z,5.50
2022-08-05T09:28:34.720Z,5.35
2022-08-05T09:31:43.197Z,6.88
2022-08-05T09:33:59.218Z,5.53
2022-08-05T09:36:54.593Z,4.88
2022-08-05T09:39:41.935Z,7.07
2022-08-05T09:42:23.596Z,4.20
2022-08-05T09:44:56.977Z,5.63
2022-08-05T09:47:34.919Z,7.20
2022-08-05T09:50:04.610Z,4.95
2022-08-05T09:52:36.753Z,6.63
2022-08-05T09:55:57.571Z,5.32
2022-08-05T09:58:09.537Z,6.10
2022-08-05T10:00:39.046Z,8.07
2022-08-05T10:03:11.829Z,5.28
2022-08-05T10:05:41.955Z,6.88
2022-08-05T10:08:34.502Z,5.10
2022-08-05T10:10:57.887Z,4.47
2022-08-05T10:13:48.170Z,6.35
2022-08-05T10:16:34.339Z,4.75
2022-08-05T10:19:11.781Z,8.38
2022-08-05T10:21:40.240Z,5.05
2022-08-05T10:24:13.490Z,6.47
2022-08-05T10:26:51.604Z,5.35
2022-08-05T10:30:06.314Z,4.97
2022-08-05T10:32:53.604Z,6.07
2022-08-05T10:35:00.565Z,4.97
2022-08-05T10:37:37.263Z,6.05
2022-08-05T10:40:28.085Z,4.85
2022-08-05T10:43:11.118Z,4.60
2022-08-05T10:45:42.032Z,4.78
2022-08-05T10:48:34.468Z,5.32
2022-08-05T10:51:22.009Z,6.45
2022-08-05T10:54:01.618Z,6.88
2022-08-05T10:57:01.910Z,7.55
2022-08-05T11:00:04.121Z,6.35
2022-08-05T11:02:38.264Z,5.82
2022-08-05T11:05:10.444Z,7.47
2022-08-05T11:08:02.752Z,7.22
2022-08-05T11:10:50.442Z,7.10
2022-08-05T11:13:57.743Z,6.95
2022-08-05T11:16:33.791Z,6.20
2022-08-05T11:20:10.418Z,7.00
2022-08-05T11:22:39.536Z,7.63
2022-08-05T11:26:04.136Z,6.40
2022-08-05T11:28:17.662Z,6.68
2022-08-05T11:31:06.082Z,6.15
2022-08-05T11:33:46.289Z,7.20
2022-08-05T11:36:34.698Z,6.53
2022-08-05T11:39:09.424Z,5.78
2022-08-05T11:42:01.520Z,8.93
2022-08-05T11:44:52.894Z,7.18
2022-08-05T11:47:49.882Z,8.93
2022-08-05T11:50:14.149Z,8.75
2022-08-05T11:52:44.013Z,7.40
2022-08-05T11:55:13.900Z,7.75
2022-08-05T11:58:09.772Z,7.60
2022-08-05T12:00:37.729Z,8.68
2022-08-05T12:03:29.374Z,7.68
2022-08-05T12:06:06.512Z,9.70
2022-08-05T12:08:49.895Z,8.27
2022-08-05T12:11:40.150Z,9.07
2022-08-05T12:14:10.246Z,8.13
2022-08-05T12:16:40.443Z,7.75
2022-08-05T12:20:26.678Z,8.32
2022-08-05T12:22:01.662Z,7.78
2022-08-05T12:24:30.004Z,6.85
2022-08-05T12:26:57.773Z,6.50
2022-08-05T12:29:27.396Z,8.48
2022-08-05T12:31:56.124Z,6.53
2022-08-05T12:34:32.561Z,7.97
2022-08-05T12:37:10.535Z,7.55
2022-08-05T12:39:39.616Z,6.97
2022-08-05T12:42:14.712Z,6.50
2022-08-05T12:44:44.905Z,8.27
2022-08-05T12:47:17.049Z,6.30
2022-08-05T12:50:03.629Z,6.38
2022-08-05T12:52:41.611Z,6.28
2022-08-05T12:55:23.029Z,6.78
2022-08-05T12:58:38.204Z,6.55
2022-08-05T13:02:02.135Z,6.65
2022-08-05T13:03:42.251Z,6.85
2022-08-05T13:06:17.250Z,6.13
2022-08-05T13:08:51.610Z,6.20
2022-08-05T13:12:02.573Z,5.35
2022-08-05T13:14:24.901Z,4.85
2022-08-05T13:20:09.918Z,4.25
2022-08-05T13:22:43.711Z,5.53
2022-08-05T13:25:19.330Z,5.38
2022-08-05T13:27:58.652Z,6.25
2022-08-05T13:30:35.105Z,4.72
2022-08-05T13:33:04.709Z,4.43
2022-08-05T13:35:46.989Z,4.65
2022-08-05T13:38:31.096Z,3.58
2022-08-05T13:41:04.009Z,3.72
2022-08-05T13:43:44.683Z,2.45
2022-08-05T13:46:35.824Z,2.85
2022-08-05T13:49:11.575Z,2.67
2022-08-05T13:51:46.382Z,2.38
2022-08-05T13:54:16.574Z,2.47
2022-08-05T13:56:51.699Z,2.92
2022-08-05T13:59:24.626Z,3.83
2022-08-05T14:02:00.066Z,3.33
2022-08-05T14:04:52.692Z,1.63
2022-08-05T14:07:25.837Z,3.50
2022-08-05T14:10:11.590Z,2.25
2022-08-05T14:12:39.415Z,1.92
2022-08-05T14:16:08.907Z,4.10
2022-08-05T14:18:00.719Z,1.95
2022-08-05T14:20:30.590Z,2.65
2022-08-05T14:22:59.517Z,4.07
2022-08-05T14:25:30.114Z,2.17
2022-08-05T14:27:58.748Z,1.30
2022-08-05T14:30:27.822Z,3.33
2022-08-05T14:32:56.723Z,2.85
2022-08-05T14:35:37.309Z,2.47
2022-08-05T14:38:32.625Z,3.00
2022-08-05T14:41:00.941Z,1.95
2022-08-05T14:43:59.416Z,3.55
2022-08-05T14:46:16.222Z,1.40
2022-08-05T14:48:44.032Z,2.95
2022-08-05T14:51:18.415Z,2.95
2022-08-05T14:54:27.027Z,1.63
2022-08-05T14:56:38.042Z,1.83
2022-08-05T14:59:11.804Z,2.83
2022-08-05T15:01:48.357Z,1.30
2022-08-05T15:04:20.590Z,2.17
2022-08-05T15:06:50.982Z,1.48
2022-08-05T15:09:51.943Z,2.63
2022-08-05T15:12:09.467Z,4.00
2022-08-05T15:14:48.192Z,1.38
2022-08-05T15:17:46.721Z,2.47
2022-08-05T15:20:18.872Z,1.55
2022-08-05T15:22:54.925Z,1.70
2022-08-05T15:25:40.993Z,2.88
2022-08-05T15:28:14.705Z,3.65
2022-08-05T15:30:46.235Z,2.50
2022-08-05T15:34:05.941Z,3.78
2022-08-05T15:36:04.837Z,2.92
2022-08-05T15:38:40.849Z,2.50
2022-08-05T15:41:21.267Z,4.10
2022-08-05T15:43:52.200Z,3.08
2022-08-05T15:46:24.847Z,1.85
2022-08-05T15:49:01.291Z,3.95
2022-08-05T15:52:04.463Z,2.70
2022-08-05T15:54:34.890Z,1.33
2022-08-05T15:57:07.535Z,3.00
2022-08-05T15:59:36.231Z,1.30
2022-08-05T16:02:14.730Z,3.15
2022-08-05T16:04:47.659Z,1.48
2022-08-05T16:07:16.554Z,1.05
2022-08-05T16:09:45.749Z,2.38
2022-08-05T16:12:13.322Z,1.55
2022-08-05T16:14:43.506Z,3.13
2022-08-05T16:17:12.346Z,1.38
2022-08-05T16:20:05.075Z,2.42
2022-08-05T16:22:34.054Z,2.10
2022-08-05T16:25:05.410Z,6.00
2022-08-05T16:28:00.236Z,2.30
2022-08-05T16:30:28.767Z,5.65
2022-08-05T16:32:57.992Z,1.77
2022-08-05T16:35:28.585Z,2.72
2022-08-05T16:38:16.315Z,1.23
2022-08-05T16:40:54.990Z,1.10
2022-08-05T16:43:25.068Z,1.48
2022-08-05T16:46:03.446Z,1.70
2022-08-05T16:48:38.272Z,3.55
2022-08-05T16:51:09.343Z,2.90
2022-08-05T16:54:05.332Z,1.73
2022-08-05T16:56:29.981Z,1.65
2022-08-05T16:58:58.763Z,2.15
2022-08-05T17:01:31.657Z,3.33
2022-08-05T17:04:16.189Z,2.13
2022-08-05T17:06:53.301Z,3.90
2022-08-05T17:09:23.086Z,3.28
2022-08-05T17:11:59.345Z,9.95
2022-08-05T17:14:37.712Z,1.33
2022-08-05T17:17:09.369Z,1.83
2022-08-05T17:19:45.304Z,1.98
2022-08-05T17:22:24.453Z,2.78
2022-08-05T17:24:58.686Z,2.92
2022-08-05T17:27:34.401Z,1.92
2022-08-05T17:30:04.808Z,1.50
2022-08-05T17:32:42.034Z,2.17
2022-08-05T17:35:12.319Z,1.38
2022-08-05T17:37:45.704Z,2.45
2022-08-05T17:40:17.710Z,2.45
2022-08-05T17:42:50.471Z,1.75
2022-08-05T17:45:29.586Z,2.58
2022-08-05T17:48:07.919Z,3.22
2022-08-05T17:50:35.734Z,3.90
2022-08-05T17:53:05.075Z,2.40
2022-08-05T17:55:34.234Z,2.55
2022-08-05T17:58:09.872Z,1.30
2022-08-05T18:00:47.877Z,1.75
2022-08-05T18:06:11.288Z,1.95
2022-08-05T18:08:44.499Z,1.85
2022-08-05T18:11:23.684Z,1.95
2022-08-05T18:14:07.189Z,2.78
2022-08-05T18:16:46.893Z,1.67
2022-08-05T18:19:23.250Z,3.47
2022-08-05T18:22:07.778Z,2.25
2022-08-05T18:24:38.044Z,2.85
2022-08-05T18:27:12.598Z,4.55
2022-08-05T18:29:51.986Z,2.75
2022-08-05T18:32:27.864Z,2.30
2022-08-05T18:34:57.279Z,2.78
2022-08-05T18:37:34.639Z,1.63
2022-08-05T18:40:54.354Z,2.03
2022-08-05T18:42:57.844Z,1.35
2022-08-05T18:45:25.529Z,3.53
2022-08-05T18:48:11.207Z,1.60
2022-08-05T18:52:02.488Z,2.05
2022-08-05T18:53:50.458Z,1.83
2022-08-05T18:56:21.799Z,1.42
2022-08-05T18:58:54.745Z,3.42
2022-08-05T19:01:47.187Z,1.20
2022-08-05T19:04:24.068Z,1.52
2022-08-05T19:06:53.623Z,1.52
2022-08-05T19:09:21.613Z,1.70
2022-08-05T19:12:00.027Z,1.85
2022-08-05T19:14:53.465Z,3.45
2022-08-05T19:17:17.922Z,3.75
2022-08-05T19:19:48.787Z,1.38
2022-08-05T19:22:17.500Z,2.55
2022-08-05T19:24:56.538Z,4.32
2022-08-05T19:27:30.210Z,2.03
2022-08-05T19:29:58.409Z,1.85
2022-08-05T19:32:27.942Z,2.17
2022-08-05T19:34:57.918Z,2.50
2022-08-05T19:37:34.964Z,1.67
2022-08-05T19:40:15.112Z,1.58
2022-08-05T19:42:42.966Z,1.45
2022-08-05T19:45:33.324Z,2.38
2022-08-05T19:48:06.025Z,2.55
2022-08-05T19:50:35.009Z,2.80
2022-08-05T19:53:09.541Z,2.08
2022-08-05T19:56:15.053Z,1.40
2022-08-05T19:58:29.410Z,2.08
2022-08-05T20:00:57.999Z,1.92
2022-08-05T20:03:26.642Z,1.45
2022-08-05T20:05:56.711Z,1.65
2022-08-05T20:08:25.418Z,2.05
2022-08-05T20:10:54.016Z,2.47
2022-08-05T20:13:54.920Z,2.40
2022-08-05T20:16:10.162Z,2.03
2022-08-05T20:18:38.458Z,1.63
2022-08-05T20:21:07.445Z,0.50
2022-08-05T20:23:51.637Z,1.33
2022-08-05T20:26:24.708Z,1.33
2022-08-05T20:28:55.879Z,1.60
2022-08-05T20:31:36.713Z,0.90
2022-08-05T20:34:04.908Z,1.17
2022-08-05T20:36:32.874Z,1.80
2022-08-05T20:39:00.590Z,1.58
2022-08-05T20:41:44.358Z,5.03
2022-08-05T20:44:19.327Z,1.50
2022-08-05T20:47:00.570Z,2.15
2022-08-05T20:49:28.247Z,3.13
2022-08-05T20:51:57.387Z,2.63
2022-08-05T20:54:43.201Z,0.80
2022-08-05T20:57:42.018Z,1.58
2022-08-05T21:00:20.568Z,1.23
2022-08-05T21:02:57.040Z,1.35
2022-08-05T21:05:25.305Z,2.45
2022-08-05T21:08:05.682Z,3.70
2022-08-05T21:10:33.912Z,0.60
2022-08-05T21:13:10.343Z,2.45
2022-08-05T21:15:44.381Z,1.90
2022-08-05T21:18:13.838Z,2.17
2022-08-05T21:20:41.460Z,2.10
2022-08-05T21:23:10.627Z,1.58
2022-08-05T21:25:44.648Z,4.35
2022-08-05T21:28:12.341Z,1.85
2022-08-05T21:30:46.142Z,3.35
2022-08-05T21:33:23.233Z,3.10
2022-08-05T21:35:55.870Z,1.27
2022-08-05T21:38:27.796Z,1.58
2022-08-05T21:40:55.535Z,2.75
2022-08-05T21:43:24.869Z,3.15
2022-08-05T21:45:57.767Z,4.03
2022-08-05T21:48:28.966Z,2.63
2022-08-05T21:50:59.609Z,3.80
2022-08-05T21:53:27.954Z,1.58
2022-08-05T21:56:09.779Z,5.35
2022-08-05T21:58:48.223Z,1.30
2022-08-05T22:01:26.337Z,1.95
2022-08-05T22:03:54.317Z,2.80
2022-08-05T22:06:34.827Z,5.57
2022-08-05T22:09:13.695Z,4.10
2022-08-05T22:11:47.058Z,6.72
2022-08-05T22:14:33.136Z,2.58
2022-08-05T22:17:06.618Z,5.88
2022-08-05T22:20:00.724Z,4.45
2022-08-05T22:22:27.375Z,2.20
2022-08-05T22:25:21.263Z,3.42
2022-08-05T22:28:11.235Z,5.43
2022-08-05T22:30:55.370Z,4.88
2022-08-05T22:33:55.867Z,4.80
2022-08-05T22:36:15.760Z,1.50
2022-08-05T22:38:48.563Z,2.45
2022-08-05T22:41:26.280Z,4.75
2022-08-05T22:44:09.020Z,5.25
2022-08-05T22:46:40.168Z,7.88
2022-08-05T22:49:23.480Z,5.60
2022-08-05T22:52:05.309Z,10.35
2022-08-05T22:54:36.919Z,8.85
2022-08-05T22:57:05.836Z,6.75
2022-08-05T22:59:44.114Z,4.80
2022-08-05T23:02:17.726Z,4.22
2022-08-05T23:04:51.568Z,6.50
2022-08-05T23:07:21.865Z,6.97
2022-08-05T23:09:57.307Z,5.35
2022-08-05T23:12:32.603Z,7.03
2022-08-05T23:15:08.804Z,5.07
2022-08-05T23:17:59.616Z,8.52
2022-08-05T23:20:25.092Z,6.72
2022-08-05T23:22:55.662Z,7.88
2022-08-05T23:25:52.713Z,7.70
2022-08-05T23:28:13.125Z,7.40
2022-08-05T23:30:53.207Z,7.50
2022-08-05T23:33:26.131Z,7.53
2022-08-05T23:36:13.461Z,7.65
2022-08-05T23:38:42.851Z,8.70
2022-08-05T23:41:11.839Z,7.90
2022-08-05T23:44:05.297Z,6.03
2022-08-05T23:46:28.664Z,6.30
2022-08-05T23:49:00.769Z,6.05
2022-08-05T23:51:52.398Z,6.00
2022-08-05T23:54:30.379Z,10.20
2022-08-05T23:57:03.315Z,9.85
